الصفحة الرئيسية
METAR-TAF:

METAR-TAF

مطار :

مطار أقنار - حاج باي أخاموك

تمنراست, الجزائر

دائرة عرض: 22-49N, خط طول: 005-28E, ارتفاع: 1377 متر

مراقبة الطقس الحالي

تاريخ ووقت الإصدار 46 دقيقة قبل الساعة 11:00UTC
ريح 11 عقدة من الشرق, الاتجاه يتراوح بين الشمال الشرقي و الشرق/الجنوب الشرقي
درجة الحرارة 37°درجة مئوية
ضغط 1021 hPa
الرؤية 10 كم أو أكثر
الغيوم لا تقل 1500 م ولا وجود لمزنة ركامية السحاب الأسود

METAR: DAAT 141100Z 08011KT 040V110 CAVOK 37/// Q1021

زمن: 12:46 (11:46 UTC)

توقعات

تاريخ ووقت الإصدار 6ساعات و 46 دقيقة قبل الساعة 05:00UTC
التوقعات صالحة من14 الساعة 06 UTC إلى 15 الساعة 06 UTC
ريح 8 عقدة من الجنوب الشرقي
الرؤية 10 كم أو أكثر
الغيوم لا تقل 1500 م ولا وجود لمزنة ركامية السحاب الأسود
مؤقت
من 14 الساعة 12 UTC إلى 14 الساعة 17 UTC
ريح 15 عقدة من الشرق/الجنوب الشرقي تتزايد حتى 30 عقدة

TAF: DAAT 140500Z 1406/1506 14008KT CAVOK TEMPO 1412/1417 12015G30KT

أرصاد الطقس والتوقعات من أكثر من 4000 مطار (تقارير الطقس للمطار METAR والتنبؤ بالطقس بالمطارTAF).

المحطات المتاحة هي النقط الصفراء والحمراء على الخريطة.

حرك المؤشر فوق النقطة لمعرفة اسم المحطة.

ثم انقر لمعرفة أرصاد وتوقعات الطقس.

لتغيير الخارطة: اضغط على الأزرار الخضراء مع رمز الصليب الأسود للتكبير. على الزر الأخضر مع شرطة للتصغير، أو على الأسهم الخضراء للخرائط المجاورة.


METAR-TAF: